Terminal Aerodrome Forecast
Issued by NWS Greer, SC

Home | Current Version | Previous Version | Text Only | Print | Product List | Glossary On
Versions: 1 2 3 4 5 6 7 8 9 10 11 12 13 14 15 16 17 18 19 20 21 22 23 24
000
FTUS42 KGSP 051512 AAB
TAFGSP
TAF AMD
KGSP 051512Z 0515/0612 21018G24KT P6SM OVC013
     FM051600 25010KT 3SM -RA BR OVC008
     FM052100 33008KT 4SM -RA BR OVC008
     FM060000 36010KT P6SM OVC012
     FM060200 02010KT P6SM BKN020
     FM060600 03010KT P6SM SCT040=

USA.gov is the U.S. government's official web portal to all federal, state and local government web resources and services.